sensor_id;sensor_type;location;lat;lon;timestamp;P1;durP1;ratioP1;P2;durP2;ratioP2
30934;SDS011;51033;42.648;23.292;2023-05-20T00:01:58;9.40;;;7.40;;
30934;SDS011;51033;42.648;23.292;2023-05-20T00:04:24;14.18;;;7.97;;
30934;SDS011;51033;42.648;23.292;2023-05-20T00:06:49;10.38;;;7.03;;
30934;SDS011;51033;42.648;23.292;2023-05-20T00:09:15;8.20;;;7.07;;
30934;SDS011;51033;42.648;23.292;2023-05-20T00:11:44;13.52;;;7.97;;
30934;SDS011;51033;42.648;23.292;2023-05-20T00:14:10;10.30;;;7.25;;
30934;SDS011;51033;42.648;23.292;2023-05-20T00:16:35;13.02;;;7.13;;
30934;SDS011;51033;42.648;23.292;2023-05-20T00:19:01;14.38;;;7.72;;
30934;SDS011;51033;42.648;23.292;2023-05-20T00:21:26;10.52;;;7.93;;
30934;SDS011;51033;42.648;23.292;2023-05-20T00:23:52;13.38;;;7.85;;
30934;SDS011;51033;42.648;23.292;2023-05-20T00:26:17;11.68;;;7.70;;
30934;SDS011;51033;42.648;23.292;2023-05-20T00:28:43;19.00;;;8.02;;
30934;SDS011;51033;42.648;23.292;2023-05-20T00:31:08;13.55;;;8.52;;
30934;SDS011;51033;42.648;23.292;2023-05-20T00:33:34;11.05;;;7.80;;
30934;SDS011;51033;42.648;23.292;2023-05-20T00:36:00;11.75;;;7.88;;
30934;SDS011;51033;42.648;23.292;2023-05-20T00:38:26;9.35;;;7.35;;
30934;SDS011;51033;42.648;23.292;2023-05-20T00:40:51;9.65;;;6.53;;
30934;SDS011;51033;42.648;23.292;2023-05-20T00:43:17;9.63;;;7.88;;
30934;SDS011;51033;42.648;23.292;2023-05-20T00:45:44;11.23;;;7.60;;
30934;SDS011;51033;42.648;23.292;2023-05-20T00:48:10;10.93;;;6.82;;
30934;SDS011;51033;42.648;23.292;2023-05-20T00:50:35;9.48;;;6.65;;
30934;SDS011;51033;42.648;23.292;2023-05-20T00:53:01;8.68;;;6.72;;
30934;SDS011;51033;42.648;23.292;2023-05-20T00:55:27;12.32;;;8.27;;
30934;SDS011;51033;42.648;23.292;2023-05-20T00:57:53;10.30;;;6.50;;
30934;SDS011;51033;42.648;23.292;2023-05-20T01:00:18;10.27;;;7.93;;
30934;SDS011;51033;42.648;23.292;2023-05-20T01:02:44;11.98;;;7.15;;
30934;SDS011;51033;42.648;23.292;2023-05-20T01:05:09;12.90;;;7.00;;
30934;SDS011;51033;42.648;23.292;2023-05-20T01:07:35;11.35;;;6.95;;
30934;SDS011;51033;42.648;23.292;2023-05-20T01:10:00;10.45;;;7.07;;
30934;SDS011;51033;42.648;23.292;2023-05-20T01:12:26;12.52;;;7.20;;
30934;SDS011;51033;42.648;23.292;2023-05-20T01:15:00;16.73;;;7.72;;
30934;SDS011;51033;42.648;23.292;2023-05-20T01:17:31;8.45;;;6.78;;
30934;SDS011;51033;42.648;23.292;2023-05-20T01:19:58;11.00;;;7.72;;
30934;SDS011;51033;42.648;23.292;2023-05-20T01:22:28;15.15;;;7.55;;
30934;SDS011;51033;42.648;23.292;2023-05-20T01:24:54;9.68;;;7.35;;
30934;SDS011;51033;42.648;23.292;2023-05-20T01:27:21;9.77;;;7.20;;
30934;SDS011;51033;42.648;23.292;2023-05-20T01:29:48;9.77;;;6.85;;
30934;SDS011;51033;42.648;23.292;2023-05-20T01:35:01;8.75;;;6.65;;
30934;SDS011;51033;42.648;23.292;2023-05-20T01:37:28;10.48;;;7.70;;
30934;SDS011;51033;42.648;23.292;2023-05-20T01:39:55;13.95;;;7.22;;
30934;SDS011;51033;42.648;23.292;2023-05-20T01:42:22;10.02;;;7.05;;
30934;SDS011;51033;42.648;23.292;2023-05-20T01:44:50;8.85;;;6.82;;
30934;SDS011;51033;42.648;23.292;2023-05-20T01:47:15;10.88;;;7.30;;
30934;SDS011;51033;42.648;23.292;2023-05-20T01:49:40;8.30;;;6.75;;
30934;SDS011;51033;42.648;23.292;2023-05-20T01:52:06;10.23;;;7.13;;
30934;SDS011;51033;42.648;23.292;2023-05-20T01:54:31;10.90;;;6.78;;
30934;SDS011;51033;42.648;23.292;2023-05-20T01:56:57;9.90;;;6.32;;
30934;SDS011;51033;42.648;23.292;2023-05-20T01:59:22;11.35;;;6.47;;
30934;SDS011;51033;42.648;23.292;2023-05-20T02:01:47;9.13;;;6.78;;
30934;SDS011;51033;42.648;23.292;2023-05-20T02:04:13;7.95;;;5.50;;
30934;SDS011;51033;42.648;23.292;2023-05-20T02:06:38;11.90;;;6.47;;
30934;SDS011;51033;42.648;23.292;2023-05-20T02:09:04;10.70;;;7.30;;
30934;SDS011;51033;42.648;23.292;2023-05-20T02:11:29;12.27;;;6.65;;
30934;SDS011;51033;42.648;23.292;2023-05-20T02:13:54;9.65;;;7.03;;
30934;SDS011;51033;42.648;23.292;2023-05-20T02:16:20;10.52;;;6.93;;
30934;SDS011;51033;42.648;23.292;2023-05-20T02:18:45;14.00;;;6.07;;
30934;SDS011;51033;42.648;23.292;2023-05-20T02:21:11;9.85;;;6.07;;
30934;SDS011;51033;42.648;23.292;2023-05-20T02:23:36;19.02;;;7.03;;
30934;SDS011;51033;42.648;23.292;2023-05-20T02:26:01;8.52;;;6.55;;
30934;SDS011;51033;42.648;23.292;2023-05-20T02:28:29;7.78;;;6.82;;
30934;SDS011;51033;42.648;23.292;2023-05-20T02:30:54;11.50;;;7.15;;
30934;SDS011;51033;42.648;23.292;2023-05-20T02:33:19;11.25;;;7.00;;
30934;SDS011;51033;42.648;23.292;2023-05-20T02:35:45;10.10;;;6.70;;
30934;SDS011;51033;42.648;23.292;2023-05-20T02:38:11;8.25;;;6.07;;
30934;SDS011;51033;42.648;23.292;2023-05-20T02:40:36;10.35;;;7.03;;
30934;SDS011;51033;42.648;23.292;2023-05-20T02:43:05;12.18;;;7.57;;
30934;SDS011;51033;42.648;23.292;2023-05-20T02:45:30;9.82;;;7.30;;
30934;SDS011;51033;42.648;23.292;2023-05-20T02:47:55;11.95;;;7.38;;
30934;SDS011;51033;42.648;23.292;2023-05-20T02:50:21;10.70;;;7.72;;
30934;SDS011;51033;42.648;23.292;2023-05-20T02:52:46;9.40;;;7.05;;
30934;SDS011;51033;42.648;23.292;2023-05-20T02:55:12;11.15;;;7.50;;
30934;SDS011;51033;42.648;23.292;2023-05-20T02:57:38;14.25;;;7.82;;
30934;SDS011;51033;42.648;23.292;2023-05-20T03:00:04;8.55;;;7.10;;
30934;SDS011;51033;42.648;23.292;2023-05-20T03:02:31;9.40;;;7.13;;
30934;SDS011;51033;42.648;23.292;2023-05-20T03:04:57;11.98;;;6.50;;
30934;SDS011;51033;42.648;23.292;2023-05-20T03:07:23;8.50;;;6.68;;
30934;SDS011;51033;42.648;23.292;2023-05-20T03:09:49;14.18;;;7.03;;
30934;SDS011;51033;42.648;23.292;2023-05-20T03:12:14;10.85;;;6.72;;
30934;SDS011;51033;42.648;23.292;2023-05-20T03:14:39;9.65;;;6.75;;
30934;SDS011;51033;42.648;23.292;2023-05-20T03:17:05;8.45;;;6.35;;
30934;SDS011;51033;42.648;23.292;2023-05-20T03:19:30;11.05;;;6.75;;
30934;SDS011;51033;42.648;23.292;2023-05-20T03:21:56;13.90;;;6.80;;
30934;SDS011;51033;42.648;23.292;2023-05-20T03:24:22;8.27;;;6.72;;
30934;SDS011;51033;42.648;23.292;2023-05-20T03:26:47;12.25;;;7.97;;
30934;SDS011;51033;42.648;23.292;2023-05-20T03:29:13;10.98;;;6.82;;
30934;SDS011;51033;42.648;23.292;2023-05-20T03:31:39;11.18;;;6.78;;
30934;SDS011;51033;42.648;23.292;2023-05-20T03:34:04;8.55;;;6.68;;
30934;SDS011;51033;42.648;23.292;2023-05-20T03:36:29;8.38;;;7.50;;
30934;SDS011;51033;42.648;23.292;2023-05-20T03:38:56;8.98;;;6.82;;
30934;SDS011;51033;42.648;23.292;2023-05-20T03:41:21;12.65;;;6.70;;
30934;SDS011;51033;42.648;23.292;2023-05-20T03:43:47;10.15;;;7.22;;
30934;SDS011;51033;42.648;23.292;2023-05-20T03:46:12;12.15;;;7.57;;
30934;SDS011;51033;42.648;23.292;2023-05-20T03:48:37;9.85;;;7.07;;
30934;SDS011;51033;42.648;23.292;2023-05-20T03:51:03;10.45;;;7.45;;
30934;SDS011;51033;42.648;23.292;2023-05-20T03:53:28;9.18;;;6.55;;
30934;SDS011;51033;42.648;23.292;2023-05-20T03:55:54;12.15;;;6.43;;
30934;SDS011;51033;42.648;23.292;2023-05-20T03:58:19;10.30;;;7.07;;
30934;SDS011;51033;42.648;23.292;2023-05-20T04:00:45;8.13;;;6.57;;
30934;SDS011;51033;42.648;23.292;2023-05-20T04:03:11;16.92;;;7.95;;
30934;SDS011;51033;42.648;23.292;2023-05-20T04:05:37;11.07;;;7.00;;
30934;SDS011;51033;42.648;23.292;2023-05-20T04:08:02;9.98;;;6.22;;
30934;SDS011;51033;42.648;23.292;2023-05-20T04:10:29;9.35;;;6.93;;
30934;SDS011;51033;42.648;23.292;2023-05-20T04:12:56;13.02;;;6.88;;
30934;SDS011;51033;42.648;23.292;2023-05-20T04:15:22;9.25;;;7.03;;
30934;SDS011;51033;42.648;23.292;2023-05-20T04:17:53;11.77;;;7.35;;
30934;SDS011;51033;42.648;23.292;2023-05-20T04:20:19;18.52;;;7.63;;
30934;SDS011;51033;42.648;23.292;2023-05-20T04:22:45;11.43;;;7.55;;
30934;SDS011;51033;42.648;23.292;2023-05-20T04:25:11;12.70;;;7.78;;
30934;SDS011;51033;42.648;23.292;2023-05-20T04:27:36;14.15;;;7.78;;
30934;SDS011;51033;42.648;23.292;2023-05-20T04:30:03;15.82;;;8.60;;
30934;SDS011;51033;42.648;23.292;2023-05-20T04:32:29;12.90;;;7.60;;
30934;SDS011;51033;42.648;23.292;2023-05-20T04:34:54;15.68;;;8.65;;
30934;SDS011;51033;42.648;23.292;2023-05-20T04:37:20;13.27;;;8.15;;
30934;SDS011;51033;42.648;23.292;2023-05-20T04:39:46;12.98;;;8.02;;
30934;SDS011;51033;42.648;23.292;2023-05-20T04:42:13;12.15;;;7.25;;
30934;SDS011;51033;42.648;23.292;2023-05-20T04:44:41;13.77;;;8.93;;
30934;SDS011;51033;42.648;23.292;2023-05-20T04:47:10;15.85;;;8.57;;
30934;SDS011;51033;42.648;23.292;2023-05-20T04:49:36;15.07;;;9.40;;
30934;SDS011;51033;42.648;23.292;2023-05-20T04:52:04;18.13;;;9.45;;
30934;SDS011;51033;42.648;23.292;2023-05-20T04:54:30;13.60;;;9.20;;
30934;SDS011;51033;42.648;23.292;2023-05-20T04:56:57;16.98;;;8.80;;
30934;SDS011;51033;42.648;23.292;2023-05-20T04:59:22;12.57;;;8.50;;
30934;SDS011;51033;42.648;23.292;2023-05-20T05:01:48;14.05;;;10.05;;
30934;SDS011;51033;42.648;23.292;2023-05-20T05:04:13;21.23;;;9.88;;
30934;SDS011;51033;42.648;23.292;2023-05-20T05:06:38;13.85;;;8.95;;
30934;SDS011;51033;42.648;23.292;2023-05-20T05:09:04;15.93;;;10.10;;
30934;SDS011;51033;42.648;23.292;2023-05-20T05:11:30;19.65;;;10.38;;
30934;SDS011;51033;42.648;23.292;2023-05-20T05:13:55;15.65;;;10.02;;
30934;SDS011;51033;42.648;23.292;2023-05-20T05:16:20;12.90;;;8.20;;
30934;SDS011;51033;42.648;23.292;2023-05-20T05:18:46;14.32;;;8.98;;
30934;SDS011;51033;42.648;23.292;2023-05-20T05:21:12;14.50;;;10.35;;
30934;SDS011;51033;42.648;23.292;2023-05-20T05:23:37;19.45;;;10.70;;
30934;SDS011;51033;42.648;23.292;2023-05-20T05:26:03;16.08;;;9.55;;
30934;SDS011;51033;42.648;23.292;2023-05-20T05:28:28;16.95;;;9.18;;
30934;SDS011;51033;42.648;23.292;2023-05-20T05:30:54;16.70;;;9.07;;
30934;SDS011;51033;42.648;23.292;2023-05-20T05:33:23;13.02;;;9.32;;
30934;SDS011;51033;42.648;23.292;2023-05-20T05:35:49;15.52;;;9.35;;
30934;SDS011;51033;42.648;23.292;2023-05-20T05:38:15;12.63;;;8.90;;
30934;SDS011;51033;42.648;23.292;2023-05-20T05:40:40;13.90;;;8.93;;
30934;SDS011;51033;42.648;23.292;2023-05-20T05:43:06;16.75;;;9.43;;
30934;SDS011;51033;42.648;23.292;2023-05-20T05:45:32;12.77;;;10.10;;
30934;SDS011;51033;42.648;23.292;2023-05-20T05:47:57;11.80;;;9.23;;
30934;SDS011;51033;42.648;23.292;2023-05-20T05:50:22;16.88;;;9.63;;
30934;SDS011;51033;42.648;23.292;2023-05-20T05:52:48;11.95;;;10.57;;
30934;SDS011;51033;42.648;23.292;2023-05-20T05:55:13;15.73;;;10.57;;
30934;SDS011;51033;42.648;23.292;2023-05-20T05:57:38;14.75;;;10.52;;
30934;SDS011;51033;42.648;23.292;2023-05-20T06:00:04;13.73;;;10.43;;
30934;SDS011;51033;42.648;23.292;2023-05-20T06:02:30;16.35;;;10.00;;
30934;SDS011;51033;42.648;23.292;2023-05-20T06:05:00;15.60;;;11.30;;
30934;SDS011;51033;42.648;23.292;2023-05-20T06:07:29;19.92;;;9.85;;
30934;SDS011;51033;42.648;23.292;2023-05-20T06:09:54;15.27;;;8.98;;
30934;SDS011;51033;42.648;23.292;2023-05-20T06:12:19;12.43;;;8.45;;
30934;SDS011;51033;42.648;23.292;2023-05-20T06:14:45;17.05;;;8.93;;
30934;SDS011;51033;42.648;23.292;2023-05-20T06:17:12;18.55;;;10.25;;
30934;SDS011;51033;42.648;23.292;2023-05-20T06:19:37;11.98;;;8.70;;
30934;SDS011;51033;42.648;23.292;2023-05-20T06:22:02;14.50;;;9.05;;
30934;SDS011;51033;42.648;23.292;2023-05-20T06:24:28;16.30;;;9.80;;
30934;SDS011;51033;42.648;23.292;2023-05-20T06:26:53;18.25;;;8.90;;
30934;SDS011;51033;42.648;23.292;2023-05-20T06:29:19;15.75;;;9.15;;
30934;SDS011;51033;42.648;23.292;2023-05-20T06:31:44;13.98;;;8.82;;
30934;SDS011;51033;42.648;23.292;2023-05-20T06:34:10;15.90;;;9.35;;
30934;SDS011;51033;42.648;23.292;2023-05-20T06:36:35;14.82;;;7.75;;
30934;SDS011;51033;42.648;23.292;2023-05-20T06:39:01;9.63;;;7.22;;
30934;SDS011;51033;42.648;23.292;2023-05-20T06:41:26;7.43;;;6.28;;
30934;SDS011;51033;42.648;23.292;2023-05-20T06:43:51;8.93;;;5.85;;
30934;SDS011;51033;42.648;23.292;2023-05-20T06:46:17;8.80;;;5.97;;
30934;SDS011;51033;42.648;23.292;2023-05-20T06:48:42;10.38;;;5.88;;
30934;SDS011;51033;42.648;23.292;2023-05-20T06:51:08;7.38;;;5.47;;
30934;SDS011;51033;42.648;23.292;2023-05-20T06:53:33;8.15;;;5.90;;
30934;SDS011;51033;42.648;23.292;2023-05-20T06:55:59;9.45;;;5.93;;
30934;SDS011;51033;42.648;23.292;2023-05-20T06:58:25;10.15;;;5.60;;
30934;SDS011;51033;42.648;23.292;2023-05-20T07:00:50;8.32;;;6.75;;
30934;SDS011;51033;42.648;23.292;2023-05-20T07:03:15;12.13;;;6.78;;
30934;SDS011;51033;42.648;23.292;2023-05-20T07:05:41;9.48;;;6.38;;
30934;SDS011;51033;42.648;23.292;2023-05-20T07:08:07;10.55;;;6.72;;
30934;SDS011;51033;42.648;23.292;2023-05-20T07:10:32;10.50;;;6.65;;
30934;SDS011;51033;42.648;23.292;2023-05-20T07:12:58;11.27;;;6.85;;
30934;SDS011;51033;42.648;23.292;2023-05-20T07:15:23;8.40;;;6.97;;
30934;SDS011;51033;42.648;23.292;2023-05-20T07:17:49;8.82;;;5.75;;
30934;SDS011;51033;42.648;23.292;2023-05-20T07:20:14;7.97;;;5.53;;
30934;SDS011;51033;42.648;23.292;2023-05-20T07:22:40;10.98;;;6.53;;
30934;SDS011;51033;42.648;23.292;2023-05-20T07:25:05;18.77;;;7.22;;
30934;SDS011;51033;42.648;23.292;2023-05-20T07:27:31;11.32;;;6.88;;
30934;SDS011;51033;42.648;23.292;2023-05-20T07:29:57;10.60;;;7.07;;
30934;SDS011;51033;42.648;23.292;2023-05-20T07:32:22;15.57;;;7.05;;
30934;SDS011;51033;42.648;23.292;2023-05-20T07:34:47;9.18;;;7.10;;
30934;SDS011;51033;42.648;23.292;2023-05-20T07:37:13;8.25;;;6.30;;
30934;SDS011;51033;42.648;23.292;2023-05-20T07:39:38;9.95;;;6.80;;
30934;SDS011;51033;42.648;23.292;2023-05-20T07:42:04;9.15;;;6.30;;
30934;SDS011;51033;42.648;23.292;2023-05-20T07:44:30;9.63;;;6.80;;
30934;SDS011;51033;42.648;23.292;2023-05-20T07:46:55;11.98;;;7.55;;
30934;SDS011;51033;42.648;23.292;2023-05-20T07:49:20;10.90;;;6.80;;
30934;SDS011;51033;42.648;23.292;2023-05-20T07:51:46;8.23;;;6.45;;
30934;SDS011;51033;42.648;23.292;2023-05-20T07:54:11;8.73;;;6.03;;
30934;SDS011;51033;42.648;23.292;2023-05-20T07:56:37;8.05;;;6.70;;
30934;SDS011;51033;42.648;23.292;2023-05-20T07:59:02;9.25;;;6.35;;
30934;SDS011;51033;42.648;23.292;2023-05-20T08:01:27;11.20;;;5.97;;
30934;SDS011;51033;42.648;23.292;2023-05-20T08:03:54;9.55;;;7.32;;
30934;SDS011;51033;42.648;23.292;2023-05-20T08:06:19;10.45;;;6.10;;
30934;SDS011;51033;42.648;23.292;2023-05-20T08:08:45;9.13;;;6.68;;
30934;SDS011;51033;42.648;23.292;2023-05-20T08:11:11;8.13;;;6.93;;
30934;SDS011;51033;42.648;23.292;2023-05-20T08:13:37;8.90;;;5.82;;
30934;SDS011;51033;42.648;23.292;2023-05-20T08:16:02;9.10;;;6.93;;
30934;SDS011;51033;42.648;23.292;2023-05-20T08:18:29;11.82;;;6.18;;
30934;SDS011;51033;42.648;23.292;2023-05-20T08:20:56;10.63;;;6.70;;
30934;SDS011;51033;42.648;23.292;2023-05-20T08:23:22;9.15;;;6.35;;
30934;SDS011;51033;42.648;23.292;2023-05-20T08:25:48;10.23;;;7.07;;
30934;SDS011;51033;42.648;23.292;2023-05-20T08:28:13;11.20;;;7.45;;
30934;SDS011;51033;42.648;23.292;2023-05-20T08:30:41;14.45;;;7.30;;
30934;SDS011;51033;42.648;23.292;2023-05-20T08:33:07;8.30;;;6.88;;
30934;SDS011;51033;42.648;23.292;2023-05-20T08:35:32;11.93;;;7.07;;
30934;SDS011;51033;42.648;23.292;2023-05-20T08:37:57;9.60;;;6.60;;
30934;SDS011;51033;42.648;23.292;2023-05-20T08:40:23;11.73;;;7.13;;
30934;SDS011;51033;42.648;23.292;2023-05-20T08:42:49;16.35;;;8.10;;
30934;SDS011;51033;42.648;23.292;2023-05-20T08:45:17;10.95;;;7.50;;
30934;SDS011;51033;42.648;23.292;2023-05-20T08:47:43;11.23;;;7.22;;
30934;SDS011;51033;42.648;23.292;2023-05-20T08:50:10;11.20;;;7.32;;
30934;SDS011;51033;42.648;23.292;2023-05-20T08:52:40;10.60;;;7.47;;
30934;SDS011;51033;42.648;23.292;2023-05-20T08:55:08;9.70;;;7.03;;
30934;SDS011;51033;42.648;23.292;2023-05-20T08:57:38;13.35;;;7.78;;
30934;SDS011;51033;42.648;23.292;2023-05-20T09:00:07;11.82;;;7.60;;
30934;SDS011;51033;42.648;23.292;2023-05-20T09:02:37;12.88;;;6.95;;
30934;SDS011;51033;42.648;23.292;2023-05-20T09:05:03;17.10;;;6.80;;
30934;SDS011;51033;42.648;23.292;2023-05-20T09:07:29;12.05;;;7.03;;
30934;SDS011;51033;42.648;23.292;2023-05-20T09:09:55;9.48;;;6.20;;
30934;SDS011;51033;42.648;23.292;2023-05-20T09:12:21;10.30;;;7.15;;
30934;SDS011;51033;42.648;23.292;2023-05-20T09:14:47;11.38;;;6.68;;
30934;SDS011;51033;42.648;23.292;2023-05-20T09:17:13;10.68;;;6.32;;
30934;SDS011;51033;42.648;23.292;2023-05-20T09:19:38;9.18;;;6.78;;
30934;SDS011;51033;42.648;23.292;2023-05-20T09:22:04;10.88;;;7.15;;
30934;SDS011;51033;42.648;23.292;2023-05-20T09:24:30;16.05;;;6.63;;
30934;SDS011;51033;42.648;23.292;2023-05-20T09:26:55;11.05;;;6.88;;
30934;SDS011;51033;42.648;23.292;2023-05-20T09:29:22;8.02;;;6.35;;
30934;SDS011;51033;42.648;23.292;2023-05-20T09:31:48;10.40;;;7.13;;
30934;SDS011;51033;42.648;23.292;2023-05-20T09:34:14;9.18;;;6.88;;
30934;SDS011;51033;42.648;23.292;2023-05-20T09:36:41;15.73;;;7.68;;
30934;SDS011;51033;42.648;23.292;2023-05-20T09:39:08;15.43;;;7.90;;
30934;SDS011;51033;42.648;23.292;2023-05-20T09:41:40;11.18;;;6.75;;
30934;SDS011;51033;42.648;23.292;2023-05-20T09:46:40;9.68;;;6.57;;
30934;SDS011;51033;42.648;23.292;2023-05-20T09:49:06;11.52;;;7.32;;
30934;SDS011;51033;42.648;23.292;2023-05-20T09:51:32;13.63;;;7.22;;
30934;SDS011;51033;42.648;23.292;2023-05-20T09:53:58;10.88;;;6.80;;
30934;SDS011;51033;42.648;23.292;2023-05-20T09:56:27;7.63;;;6.50;;
30934;SDS011;51033;42.648;23.292;2023-05-20T09:58:53;11.30;;;7.10;;
30934;SDS011;51033;42.648;23.292;2023-05-20T10:01:23;9.32;;;7.10;;
30934;SDS011;51033;42.648;23.292;2023-05-20T10:03:49;9.65;;;7.03;;
30934;SDS011;51033;42.648;23.292;2023-05-20T10:14:21;11.77;;;6.47;;
30934;SDS011;51033;42.648;23.292;2023-05-20T10:19:48;8.05;;;6.30;;
30934;SDS011;51033;42.648;23.292;2023-05-20T10:22:14;7.05;;;6.13;;
30934;SDS011;51033;42.648;23.292;2023-05-20T10:24:56;9.60;;;6.72;;
30934;SDS011;51033;42.648;23.292;2023-05-20T10:27:23;10.70;;;6.25;;
30934;SDS011;51033;42.648;23.292;2023-05-20T10:32:29;27.35;;;8.23;;
30934;SDS011;51033;42.648;23.292;2023-05-20T10:35:07;35.20;;;6.97;;
30934;SDS011;51033;42.648;23.292;2023-05-20T10:37:41;6.18;;;5.03;;
30934;SDS011;51033;42.648;23.292;2023-05-20T10:40:10;14.90;;;4.47;;
30934;SDS011;51033;42.648;23.292;2023-05-20T10:42:37;7.78;;;3.88;;
30934;SDS011;51033;42.648;23.292;2023-05-20T10:45:03;7.30;;;4.35;;
30934;SDS011;51033;42.648;23.292;2023-05-20T10:47:29;7.05;;;4.38;;
30934;SDS011;51033;42.648;23.292;2023-05-20T10:49:55;8.80;;;5.47;;
30934;SDS011;51033;42.648;23.292;2023-05-20T10:52:22;5.90;;;4.47;;
30934;SDS011;51033;42.648;23.292;2023-05-20T10:54:55;9.45;;;4.82;;
30934;SDS011;51033;42.648;23.292;2023-05-20T10:57:22;9.20;;;4.50;;
30934;SDS011;51033;42.648;23.292;2023-05-20T10:59:49;9.38;;;4.55;;
30934;SDS011;51033;42.648;23.292;2023-05-20T11:02:15;7.97;;;5.35;;
30934;SDS011;51033;42.648;23.292;2023-05-20T11:04:42;12.70;;;5.47;;
30934;SDS011;51033;42.648;23.292;2023-05-20T11:07:08;8.77;;;4.53;;
30934;SDS011;51033;42.648;23.292;2023-05-20T11:09:33;5.38;;;4.82;;
30934;SDS011;51033;42.648;23.292;2023-05-20T11:11:59;9.80;;;5.57;;
30934;SDS011;51033;42.648;23.292;2023-05-20T11:14:26;9.70;;;5.78;;
30934;SDS011;51033;42.648;23.292;2023-05-20T11:16:58;10.10;;;5.22;;
30934;SDS011;51033;42.648;23.292;2023-05-20T11:19:24;8.63;;;5.68;;
30934;SDS011;51033;42.648;23.292;2023-05-20T11:21:51;7.90;;;5.22;;
30934;SDS011;51033;42.648;23.292;2023-05-20T11:24:26;11.30;;;6.20;;
30934;SDS011;51033;42.648;23.292;2023-05-20T11:26:53;13.13;;;5.72;;
30934;SDS011;51033;42.648;23.292;2023-05-20T11:29:19;8.60;;;5.57;;
30934;SDS011;51033;42.648;23.292;2023-05-20T11:31:46;10.85;;;5.63;;
30934;SDS011;51033;42.648;23.292;2023-05-20T11:34:14;14.00;;;6.43;;
30934;SDS011;51033;42.648;23.292;2023-05-20T11:36:42;15.40;;;6.63;;
30934;SDS011;51033;42.648;23.292;2023-05-20T11:39:11;7.65;;;6.05;;
30934;SDS011;51033;42.648;23.292;2023-05-20T11:41:37;9.55;;;5.32;;
30934;SDS011;51033;42.648;23.292;2023-05-20T11:44:03;7.40;;;5.75;;
30934;SDS011;51033;42.648;23.292;2023-05-20T11:46:29;10.77;;;6.25;;
30934;SDS011;51033;42.648;23.292;2023-05-20T11:48:55;13.02;;;4.88;;
30934;SDS011;51033;42.648;23.292;2023-05-20T11:51:27;12.38;;;5.18;;
30934;SDS011;51033;42.648;23.292;2023-05-20T11:54:01;7.22;;;5.50;;
30934;SDS011;51033;42.648;23.292;2023-05-20T11:56:28;6.78;;;4.80;;
30934;SDS011;51033;42.648;23.292;2023-05-20T11:59:03;8.60;;;6.03;;
30934;SDS011;51033;42.648;23.292;2023-05-20T12:01:31;10.52;;;5.95;;
30934;SDS011;51033;42.648;23.292;2023-05-20T12:04:07;10.50;;;5.88;;
30934;SDS011;51033;42.648;23.292;2023-05-20T12:06:33;9.57;;;5.85;;
30934;SDS011;51033;42.648;23.292;2023-05-20T12:09:01;10.27;;;6.20;;
30934;SDS011;51033;42.648;23.292;2023-05-20T12:11:40;10.13;;;5.72;;
30934;SDS011;51033;42.648;23.292;2023-05-20T12:14:06;7.85;;;4.72;;
30934;SDS011;51033;42.648;23.292;2023-05-20T12:16:33;8.45;;;5.38;;
30934;SDS011;51033;42.648;23.292;2023-05-20T12:19:01;6.85;;;5.43;;
30934;SDS011;51033;42.648;23.292;2023-05-20T12:21:27;7.43;;;5.68;;
30934;SDS011;51033;42.648;23.292;2023-05-20T12:23:54;7.38;;;5.22;;
30934;SDS011;51033;42.648;23.292;2023-05-20T12:26:23;7.63;;;5.43;;
30934;SDS011;51033;42.648;23.292;2023-05-20T12:28:50;7.85;;;5.55;;
30934;SDS011;51033;42.648;23.292;2023-05-20T12:31:16;8.85;;;5.32;;
30934;SDS011;51033;42.648;23.292;2023-05-20T12:33:42;8.57;;;5.50;;
30934;SDS011;51033;42.648;23.292;2023-05-20T12:36:07;10.45;;;4.50;;
30934;SDS011;51033;42.648;23.292;2023-05-20T12:38:33;27.83;;;5.35;;
30934;SDS011;51033;42.648;23.292;2023-05-20T12:40:58;8.30;;;6.05;;
30934;SDS011;51033;42.648;23.292;2023-05-20T12:43:24;11.95;;;4.93;;
30934;SDS011;51033;42.648;23.292;2023-05-20T12:45:49;11.55;;;4.95;;
30934;SDS011;51033;42.648;23.292;2023-05-20T12:48:16;7.60;;;4.72;;
30934;SDS011;51033;42.648;23.292;2023-05-20T12:50:44;8.95;;;4.68;;
30934;SDS011;51033;42.648;23.292;2023-05-20T12:53:09;7.40;;;3.80;;
30934;SDS011;51033;42.648;23.292;2023-05-20T12:55:35;8.95;;;4.18;;
30934;SDS011;51033;42.648;23.292;2023-05-20T12:58:00;7.20;;;4.70;;
30934;SDS011;51033;42.648;23.292;2023-05-20T13:00:26;5.47;;;4.53;;
30934;SDS011;51033;42.648;23.292;2023-05-20T13:02:51;12.90;;;5.75;;
30934;SDS011;51033;42.648;23.292;2023-05-20T13:05:17;7.50;;;5.72;;
30934;SDS011;51033;42.648;23.292;2023-05-20T13:07:43;12.43;;;9.73;;
30934;SDS011;51033;42.648;23.292;2023-05-20T13:10:09;6.20;;;5.40;;
30934;SDS011;51033;42.648;23.292;2023-05-20T13:12:35;4.35;;;3.80;;
30934;SDS011;51033;42.648;23.292;2023-05-20T13:15:01;5.85;;;3.75;;
30934;SDS011;51033;42.648;23.292;2023-05-20T13:17:26;6.00;;;3.97;;
30934;SDS011;51033;42.648;23.292;2023-05-20T13:19:52;11.43;;;9.45;;
30934;SDS011;51033;42.648;23.292;2023-05-20T13:22:18;13.30;;;9.73;;
30934;SDS011;51033;42.648;23.292;2023-05-20T13:24:44;8.50;;;4.65;;
30934;SDS011;51033;42.648;23.292;2023-05-20T13:27:09;7.68;;;4.85;;
30934;SDS011;51033;42.648;23.292;2023-05-20T13:29:35;8.20;;;5.80;;
30934;SDS011;51033;42.648;23.292;2023-05-20T13:32:00;5.75;;;4.45;;
30934;SDS011;51033;42.648;23.292;2023-05-20T13:34:25;6.00;;;5.00;;
30934;SDS011;51033;42.648;23.292;2023-05-20T13:36:51;7.57;;;5.35;;
30934;SDS011;51033;42.648;23.292;2023-05-20T13:39:16;10.07;;;5.90;;
30934;SDS011;51033;42.648;23.292;2023-05-20T13:41:42;6.88;;;4.60;;
30934;SDS011;51033;42.648;23.292;2023-05-20T13:44:08;5.50;;;4.15;;
30934;SDS011;51033;42.648;23.292;2023-05-20T13:46:33;4.80;;;4.30;;
30934;SDS011;51033;42.648;23.292;2023-05-20T13:48:59;6.28;;;4.75;;
30934;SDS011;51033;42.648;23.292;2023-05-20T13:51:25;6.15;;;4.60;;
30934;SDS011;51033;42.648;23.292;2023-05-20T13:53:50;5.28;;;4.65;;
30934;SDS011;51033;42.648;23.292;2023-05-20T13:56:16;7.95;;;5.00;;
30934;SDS011;51033;42.648;23.292;2023-05-20T13:58:42;5.43;;;4.90;;
30934;SDS011;51033;42.648;23.292;2023-05-20T14:01:07;6.25;;;4.90;;
30934;SDS011;51033;42.648;23.292;2023-05-20T14:03:33;5.93;;;5.05;;
30934;SDS011;51033;42.648;23.292;2023-05-20T14:06:00;7.78;;;4.90;;
30934;SDS011;51033;42.648;23.292;2023-05-20T14:08:25;7.13;;;5.13;;
30934;SDS011;51033;42.648;23.292;2023-05-20T14:10:51;6.18;;;4.60;;
30934;SDS011;51033;42.648;23.292;2023-05-20T14:13:20;7.50;;;3.75;;
30934;SDS011;51033;42.648;23.292;2023-05-20T14:15:46;5.20;;;3.45;;
30934;SDS011;51033;42.648;23.292;2023-05-20T14:18:13;7.65;;;4.20;;
30934;SDS011;51033;42.648;23.292;2023-05-20T14:20:38;6.88;;;4.75;;
30934;SDS011;51033;42.648;23.292;2023-05-20T14:23:04;6.20;;;5.38;;
30934;SDS011;51033;42.648;23.292;2023-05-20T14:25:29;6.55;;;4.63;;
30934;SDS011;51033;42.648;23.292;2023-05-20T14:27:54;6.40;;;4.15;;
30934;SDS011;51033;42.648;23.292;2023-05-20T14:30:20;8.02;;;4.45;;
30934;SDS011;51033;42.648;23.292;2023-05-20T14:32:45;4.93;;;4.20;;
30934;SDS011;51033;42.648;23.292;2023-05-20T14:35:12;5.22;;;4.22;;
30934;SDS011;51033;42.648;23.292;2023-05-20T14:37:37;8.40;;;5.30;;
30934;SDS011;51033;42.648;23.292;2023-05-20T14:40:03;6.10;;;4.72;;